Time;durP1;ratioP1;P1;durP2;ratioP2;P2;SDS_P1;SDS_P2;PMS_P1;PMS_P2;Temp;Humidity;BMP_temperature;BMP_pressure;BME280_temperature;BME280_humidity;BME280_pressure;Samples;Min_cycle;Max_cycle;Signal;HPM_P1;HPM_P2
2022/09/07 00:00:48;;;;;;;27.00;24.90;;;19.80;99.90;;;;;;5075825;28;20044;-77
2022/09/07 00:03:15;;;;;;;26.10;24.33;;;19.70;99.90;;;;;;5060725;28;20139;-77
2022/09/07 00:05:44;;;;;;;26.35;24.40;;;19.80;99.90;;;;;;5077920;28;20093;-77
2022/09/07 00:08:11;;;;;;;26.77;24.88;;;19.60;99.90;;;;;;5058806;28;20334;-77
2022/09/07 00:10:38;;;;;;;27.05;25.00;;;19.60;99.90;;;;;;5077886;28;20510;-77
2022/09/07 00:13:06;;;;;;;26.05;24.35;;;19.50;99.90;;;;;;5078318;28;20047;-77
2022/09/07 00:15:38;;;;;;;25.25;23.52;;;19.60;99.90;;;;;;5057321;28;20039;-77
2022/09/07 00:18:05;;;;;;;27.17;24.90;;;19.50;99.90;;;;;;5079456;28;20088;-77
2022/09/07 00:20:32;;;;;;;26.63;24.63;;;19.50;99.90;;;;;;5076058;28;20177;-77
2022/09/07 00:22:59;;;;;;;25.77;23.98;;;19.40;99.90;;;;;;5060809;28;20049;-77
2022/09/07 00:25:26;;;;;;;27.08;25.05;;;19.50;99.90;;;;;;5060240;28;20692;-77
2022/09/07 00:27:55;;;;;;;26.02;24.33;;;19.40;99.90;;;;;;5061104;28;20134;-77
2022/09/07 00:30:22;;;;;;;27.20;25.02;;;19.50;99.90;;;;;;5076707;28;20102;-77
2022/09/07 00:32:48;;;;;;;26.15;24.30;;;19.60;99.90;;;;;;5059837;28;20043;-77
2022/09/07 00:35:15;;;;;;;26.63;24.55;;;19.60;99.90;;;;;;5078010;28;20066;-77
2022/09/07 00:37:42;;;;;;;26.02;24.13;;;19.60;99.90;;;;;;5043614;28;20461;-77
2022/09/07 00:40:09;;;;;;;26.52;24.50;;;19.60;99.90;;;;;;5077593;28;20052;-77
2022/09/07 00:42:36;;;;;;;27.25;25.00;;;19.60;99.90;;;;;;5045635;28;20089;-76
2022/09/07 00:45:13;;;;;;;26.25;24.35;;;19.60;99.90;;;;;;5058877;28;20048;-76
2022/09/07 00:48:02;;;;;;;25.70;23.80;;;19.60;99.90;;;;;;5075587;28;20047;-76
2022/09/07 00:50:40;;;;;;;26.52;24.50;;;19.60;99.90;;;;;;5077334;28;20098;-76
2022/09/07 00:53:22;;;;;;;26.35;24.13;;;19.60;99.90;;;;;;5056877;28;20040;-76
2022/09/07 00:55:51;;;;;;;26.38;24.33;;;19.70;99.90;;;;;;5059481;28;20040;-77
2022/09/07 00:58:22;;;;;;;26.50;24.58;;;19.70;99.90;;;;;;5059992;28;20105;-77
2022/09/07 01:00:50;;;;;;;25.83;24.13;;;19.70;99.90;;;;;;5056168;28;20094;-77
2022/09/07 01:03:23;;;;;;;25.38;23.67;;;19.80;99.90;;;;;;5057101;28;20269;-77
2022/09/07 01:05:54;;;;;;;25.85;23.88;;;19.80;99.90;;;;;;5078508;28;20322;-77
2022/09/07 01:08:22;;;;;;;25.90;24.10;;;19.70;99.90;;;;;;5059477;28;20047;-76
2022/09/07 01:10:49;;;;;;;25.10;23.50;;;19.80;99.90;;;;;;5059705;28;20067;-77
2022/09/07 01:13:16;;;;;;;26.38;24.10;;;19.70;99.90;;;;;;5078713;28;20499;-77
2022/09/07 01:15:43;;;;;;;26.83;24.85;;;19.70;99.90;;;;;;5076083;28;20226;-77
2022/09/07 01:18:16;;;;;;;26.58;24.42;;;19.70;99.90;;;;;;5100135;22;20554;-70
2022/09/07 01:21:06;;;;;;;26.55;24.75;;;19.70;99.90;;;;;;5056154;28;20176;-71
2022/09/07 01:23:58;;;;;;;26.40;24.60;;;19.70;99.90;;;;;;5054697;28;20048;-71
2022/09/07 01:27:00;;;;;;;26.20;24.30;;;19.70;99.90;;;;;;5057650;28;20041;-72
2022/09/07 01:29:48;;;;;;;26.08;24.27;;;19.70;99.90;;;;;;5039128;28;20130;-72
2022/09/07 01:32:34;;;;;;;26.25;24.45;;;19.70;99.90;;;;;;5035608;28;20593;-72
2022/09/07 01:35:08;;;;;;;25.77;24.00;;;19.70;99.90;;;;;;5041069;28;20421;-72
2022/09/07 01:38:01;;;;;;;26.25;24.23;;;19.60;99.90;;;;;;5036548;28;20363;-72
2022/09/07 01:40:47;;;;;;;25.90;24.13;;;19.70;99.90;;;;;;5034475;28;20055;-72
2022/09/07 01:43:19;;;;;;;;;;;19.70;99.90;;;;;;5036112;28;20428;-71
2022/09/07 01:45:47;;;;;;;25.90;24.10;;;19.70;99.90;;;;;;5037871;28;20048;-72
2022/09/07 01:48:16;;;;;;;25.08;23.38;;;19.60;99.90;;;;;;5038306;28;20064;-72
2022/09/07 01:50:54;;;;;;;22.58;20.95;;;19.50;99.90;;;;;;5036243;28;20041;-72
2022/09/07 01:53:27;;;;;;;21.60;19.65;;;19.50;99.90;;;;;;5037268;28;20099;-71
2022/09/07 01:56:00;;;;;;;22.08;19.77;;;19.70;99.90;;;;;;5038717;28;20037;-71
2022/09/07 01:58:51;;;;;;;20.58;18.98;;;19.80;99.90;;;;;;5040414;28;20049;-71
2022/09/07 02:01:40;;;;;;;20.98;19.25;;;19.90;99.90;;;;;;5034765;28;20474;-72
2022/09/07 02:04:16;;;;;;;20.27;18.92;;;19.80;99.90;;;;;;5037834;28;20084;-72
2022/09/07 02:06:45;;;;;;;20.60;19.05;;;19.70;99.90;;;;;;5035688;28;20075;-72
2022/09/07 02:09:30;;;;;;;20.88;19.05;;;19.60;99.90;;;;;;5040142;28;20045;-71
2022/09/07 02:12:01;;;;;;;19.98;18.65;;;19.60;99.90;;;;;;5031667;28;20131;-71
2022/09/07 02:14:35;;;;;;;20.55;19.08;;;19.50;99.90;;;;;;5039675;28;20444;-71
2022/09/07 02:17:23;;;;;;;20.58;18.77;;;19.40;99.90;;;;;;5034526;28;20645;-71
2022/09/07 02:19:54;;;;;;;19.73;18.35;;;19.30;99.90;;;;;;5037370;28;20052;-71
2022/09/07 02:22:27;;;;;;;20.90;19.25;;;19.30;99.90;;;;;;5021309;28;20613;-71
2022/09/07 02:24:58;;;;;;;19.90;18.50;;;19.30;99.90;;;;;;5035667;28;20272;-72
2022/09/07 02:27:38;;;;;;;20.27;18.52;;;19.20;99.90;;;;;;5039673;28;20074;-71
2022/09/07 02:30:05;;;;;;;20.67;19.13;;;19.20;99.90;;;;;;5033799;28;20056;-71
2022/09/07 02:32:32;;;;;;;19.75;18.55;;;19.20;99.90;;;;;;5036028;28;20535;-69
2022/09/07 02:34:59;;;;;;;20.65;19.08;;;19.20;99.90;;;;;;5020822;28;20041;-70
2022/09/07 02:37:27;;;;;;;19.40;18.17;;;19.10;99.90;;;;;;5036842;28;22378;-70
2022/09/07 02:39:54;;;;;;;20.08;18.15;;;19.10;99.90;;;;;;5037447;28;20037;-70
2022/09/07 02:42:22;;;;;;;20.75;19.00;;;19.00;99.90;;;;;;5035277;28;20114;-70
2022/09/07 02:44:49;;;;;;;20.05;18.40;;;19.00;99.90;;;;;;5036494;28;20523;-70
2022/09/07 02:47:52;;;;;;;19.55;18.33;;;18.90;99.90;;;;;;5038580;28;20045;-70
2022/09/07 02:50:58;;;;;;;19.73;18.35;;;18.90;99.90;;;;;;5017886;28;20068;-70
2022/09/07 02:53:40;;;;;;;20.85;19.00;;;18.80;99.90;;;;;;5037637;28;20451;-70
2022/09/07 02:56:27;;;;;;;19.80;18.35;;;18.70;99.90;;;;;;5036097;28;20106;-70
2022/09/07 02:59:03;;;;;;;20.25;19.02;;;18.60;99.90;;;;;;5035889;28;20048;-70
2022/09/07 03:01:49;;;;;;;20.83;19.20;;;18.60;99.90;;;;;;5017690;28;20037;-70
2022/09/07 03:04:46;;;;;;;19.52;17.83;;;18.50;99.90;;;;;;5034483;28;20049;-70
2022/09/07 03:07:18;;;;;;;19.10;17.63;;;18.40;99.90;;;;;;5015844;28;20354;-70
2022/09/07 03:09:49;;;;;;;20.10;18.38;;;18.30;99.90;;;;;;5018559;28;20332;-70
2022/09/07 03:12:16;;;;;;;20.20;18.70;;;18.20;99.90;;;;;;5033908;28;20045;-71
2022/09/07 03:14:43;;;;;;;19.75;18.35;;;18.10;99.90;;;;;;5021543;28;20063;-70
2022/09/07 03:17:11;;;;;;;19.60;18.20;;;18.10;99.90;;;;;;5019026;28;20040;-70
2022/09/07 03:19:38;;;;;;;20.48;18.73;;;18.00;99.90;;;;;;5034331;28;20055;-70
2022/09/07 03:22:06;;;;;;;20.25;18.50;;;18.00;99.90;;;;;;5036701;28;20033;-70
2022/09/07 03:24:32;;;;;;;18.13;16.58;;;18.00;99.90;;;;;;5031651;28;20045;-69
2022/09/07 03:27:00;;;;;;;18.58;17.27;;;18.00;99.90;;;;;;5039438;28;20045;-70
2022/09/07 03:29:27;;;;;;;17.83;16.42;;;17.90;99.90;;;;;;5035657;28;20111;-69
2022/09/07 03:31:53;;;;;;;17.67;16.35;;;17.90;99.90;;;;;;5037574;28;20044;-70
2022/09/07 03:34:20;;;;;;;17.50;16.13;;;17.90;99.90;;;;;;5038286;28;20045;-71
2022/09/07 03:36:47;;;;;;;17.70;16.00;;;17.80;99.90;;;;;;5019244;28;20041;-70
2022/09/07 03:39:14;;;;;;;17.80;16.02;;;17.70;99.90;;;;;;5034560;28;20052;-70
2022/09/07 03:41:41;;;;;;;17.10;15.73;;;17.70;99.90;;;;;;5015766;28;20065;-71
2022/09/07 03:44:08;;;;;;;16.73;15.48;;;17.70;99.90;;;;;;5038380;28;20090;-70
2022/09/07 03:46:34;;;;;;;16.10;14.90;;;17.60;99.90;;;;;;5016678;28;20644;-70
2022/09/07 03:49:01;;;;;;;14.43;13.18;;;17.30;99.90;;;;;;5037433;28;20134;-70
2022/09/07 03:51:30;;;;;;;13.63;12.40;;;16.90;99.90;;;;;;5033863;28;20044;-69
2022/09/07 03:53:59;;;;;;;12.63;11.73;;;16.80;99.90;;;;;;4998518;28;20049;-70
2022/09/07 03:56:26;;;;;;;13.27;12.40;;;16.80;99.90;;;;;;5016322;28;20543;-70
2022/09/07 03:58:53;;;;;;;13.35;12.00;;;16.90;99.90;;;;;;5016820;28;20775;-70
2022/09/07 04:01:23;;;;;;;12.10;11.13;;;16.90;99.90;;;;;;5019490;28;20094;-69
2022/09/07 04:03:50;;;;;;;12.27;11.30;;;16.80;99.90;;;;;;5035076;28;20386;-69
2022/09/07 04:06:18;;;;;;;11.65;10.75;;;16.80;99.90;;;;;;5034130;28;20044;-69
2022/09/07 04:08:45;;;;;;;11.52;10.60;;;16.70;99.90;;;;;;5034884;28;20115;-69
2022/09/07 04:11:15;;;;;;;10.60;9.73;;;16.70;99.90;;;;;;5033315;28;20045;-70
2022/09/07 04:13:42;;;;;;;10.55;9.65;;;16.60;99.90;;;;;;5034169;28;20547;-69
2022/09/07 04:16:15;;;;;;;11.88;10.73;;;16.70;99.90;;;;;;5034808;28;20037;-69
2022/09/07 04:18:43;;;;;;;11.20;10.23;;;16.70;99.90;;;;;;5038052;28;20460;-70
2022/09/07 04:21:10;;;;;;;10.48;9.48;;;16.60;99.90;;;;;;5039645;28;20037;-69
2022/09/07 04:23:41;;;;;;;9.18;7.47;;;16.50;99.90;;;;;;5037689;28;20049;-69
2022/09/07 04:26:22;;;;;;;8.95;8.35;;;16.40;99.90;;;;;;5038420;28;20061;-69
2022/09/07 04:28:49;;;;;;;9.30;8.55;;;16.50;99.90;;;;;;5037778;28;20048;-69
2022/09/07 04:31:17;;;;;;;10.10;9.25;;;16.40;99.90;;;;;;5035973;28;20048;-72
2022/09/07 04:33:45;;;;;;;10.48;9.60;;;16.60;99.90;;;;;;5038236;28;20094;-70
2022/09/07 04:36:13;;;;;;;8.85;8.15;;;16.60;99.90;;;;;;5036086;28;20041;-69
2022/09/07 04:38:40;;;;;;;9.85;8.90;;;16.60;99.90;;;;;;5018954;28;20041;-69
2022/09/07 04:41:11;;;;;;;10.70;9.13;;;16.70;99.90;;;;;;5036140;28;20079;-69
2022/09/07 04:43:39;;;;;;;11.27;8.65;;;16.60;99.90;;;;;;5036830;28;20044;-69
2022/09/07 04:46:09;;;;;;;10.05;8.82;;;16.50;99.90;;;;;;5003980;28;20098;-68
2022/09/07 04:48:36;;;;;;;10.32;9.32;;;16.50;99.90;;;;;;5030527;28;20118;-69
2022/09/07 04:51:05;;;;;;;9.52;8.68;;;16.60;99.90;;;;;;5037505;28;20049;-72
2022/09/07 04:53:33;;;;;;;9.70;8.95;;;16.60;99.90;;;;;;5018480;28;20052;-69
2022/09/07 04:56:00;;;;;;;10.30;9.40;;;16.70;99.90;;;;;;5035327;28;20045;-69
2022/09/07 04:58:27;;;;;;;11.05;10.15;;;16.70;99.90;;;;;;5036746;28;20044;-70
2022/09/07 05:00:59;;;;;;;10.32;9.52;;;16.70;99.90;;;;;;5016810;28;20037;-69
2022/09/07 05:03:27;;;;;;;11.55;10.00;;;16.90;99.90;;;;;;5036704;28;20604;-70
2022/09/07 05:05:55;;;;;;;10.73;9.93;;;16.90;99.90;;;;;;5036430;28;20243;-69
2022/09/07 05:08:21;;;;;;;12.00;10.90;;;16.90;99.90;;;;;;5017868;28;20073;-70
2022/09/07 05:10:53;;;;;;;13.57;12.70;;;16.90;99.90;;;;;;5036245;28;20045;-69
2022/09/07 05:13:20;;;;;;;13.45;12.45;;;16.90;99.90;;;;;;5038019;28;20099;-69
2022/09/07 05:15:47;;;;;;;14.95;13.40;;;16.90;99.90;;;;;;5031929;28;20052;-69
2022/09/07 05:18:14;;;;;;;13.07;12.32;;;16.80;99.90;;;;;;5018225;28;20516;-70
2022/09/07 05:20:41;;;;;;;14.48;13.55;;;16.80;99.90;;;;;;5017324;28;20669;-70
2022/09/07 05:23:08;;;;;;;13.55;12.70;;;16.90;99.90;;;;;;5036992;28;20546;-70
2022/09/07 05:25:45;;;;;;;15.02;13.90;;;17.00;99.90;;;;;;5035442;28;20098;-70
2022/09/07 05:28:12;;;;;;;15.18;13.98;;;17.00;99.90;;;;;;5036886;28;20140;-70
2022/09/07 05:30:45;;;;;;;15.18;14.13;;;17.00;99.90;;;;;;5016881;28;20051;-69
2022/09/07 05:33:32;;;;;;;14.25;13.07;;;17.00;99.90;;;;;;5020901;28;20045;-69
2022/09/07 05:36:20;;;;;;;15.00;13.85;;;17.00;99.90;;;;;;5017885;28;20041;-69
2022/09/07 05:38:47;;;;;;;13.60;12.75;;;16.90;99.90;;;;;;5036009;28;20045;-69
2022/09/07 05:41:16;;;;;;;13.80;12.75;;;16.90;99.90;;;;;;5034725;28;20045;-70
2022/09/07 05:43:43;;;;;;;14.75;13.80;;;16.90;99.90;;;;;;5033485;28;20041;-70
2022/09/07 05:46:30;;;;;;;14.30;13.10;;;17.00;99.90;;;;;;5033768;28;20045;-69
2022/09/07 05:48:59;;;;;;;14.25;13.32;;;17.00;99.90;;;;;;5017728;28;20111;-69
2022/09/07 05:51:26;;;;;;;14.57;13.38;;;17.00;99.90;;;;;;5034991;28;21391;-69
2022/09/07 05:53:52;;;;;;;14.80;13.63;;;16.90;99.90;;;;;;5035426;28;20580;-70
2022/09/07 05:56:19;;;;;;;13.80;12.90;;;17.00;99.90;;;;;;5037341;28;20127;-69
2022/09/07 05:58:48;;;;;;;13.43;12.63;;;17.00;99.90;;;;;;5034716;28;20041;-69
2022/09/07 06:01:16;;;;;;;13.50;12.50;;;16.90;99.90;;;;;;5033057;28;20487;-70
2022/09/07 06:03:43;;;;;;;12.38;11.63;;;17.00;99.90;;;;;;5034681;28;20589;-69
2022/09/07 06:06:12;;;;;;;12.77;11.90;;;17.10;99.90;;;;;;5035932;28;20052;-69
2022/09/07 06:08:44;;;;;;;13.70;12.73;;;17.20;99.90;;;;;;5032554;28;20114;-69
2022/09/07 06:11:14;;;;;;;13.10;12.40;;;17.30;99.90;;;;;;5017108;28;20069;-70
2022/09/07 06:13:41;;;;;;;12.73;12.02;;;17.20;99.90;;;;;;5016410;28;20118;-69
2022/09/07 06:16:10;;;;;;;13.98;12.70;;;17.20;99.90;;;;;;5035104;28;20570;-69
2022/09/07 06:18:39;;;;;;;13.98;12.98;;;17.20;99.90;;;;;;5017028;28;20080;-69
2022/09/07 06:21:17;;;;;;;12.02;11.32;;;17.30;99.90;;;;;;5035797;28;20068;-69
2022/09/07 06:23:45;;;;;;;13.95;12.90;;;17.40;99.90;;;;;;5033937;28;21339;-69
2022/09/07 06:26:14;;;;;;;14.00;13.15;;;17.40;99.90;;;;;;5035629;28;20063;-69
2022/09/07 06:28:46;;;;;;;13.50;12.80;;;17.40;99.90;;;;;;5036882;28;20037;-70
2022/09/07 06:31:18;;;;;;;14.13;12.93;;;17.50;99.90;;;;;;5032836;28;20045;-70
2022/09/07 06:33:46;;;;;;;14.38;13.40;;;17.50;99.90;;;;;;5016935;28;20048;-70
2022/09/07 06:36:26;;;;;;;13.32;12.10;;;17.40;99.90;;;;;;5032755;28;20452;-69
2022/09/07 06:38:54;;;;;;;14.32;13.20;;;17.50;99.90;;;;;;5034734;28;20036;-69
2022/09/07 06:41:29;;;;;;;13.80;13.00;;;17.60;99.90;;;;;;5034799;28;20041;-69
2022/09/07 06:44:19;;;;;;;14.60;13.70;;;17.60;99.90;;;;;;5015607;28;20068;-69
2022/09/07 06:46:53;;;;;;;14.57;13.57;;;17.70;99.90;;;;;;5035213;28;20123;-69
2022/09/07 06:49:28;;;;;;;15.07;13.70;;;17.80;99.90;;;;;;5017522;28;20045;-69
2022/09/07 06:51:54;;;;;;;13.88;12.50;;;18.00;99.90;;;;;;5034693;28;20037;-70
2022/09/07 06:54:21;;;;;;;15.38;14.32;;;18.10;99.90;;;;;;5017863;28;20052;-70
2022/09/07 06:57:08;;;;;;;16.23;14.95;;;18.10;99.90;;;;;;5036259;28;20140;-69
2022/09/07 06:59:36;;;;;;;16.13;14.98;;;18.10;99.90;;;;;;5018114;28;20037;-70
2022/09/07 07:02:05;;;;;;;15.90;15.00;;;18.10;99.90;;;;;;5030296;28;20598;-69
2022/09/07 07:04:32;;;;;;;17.25;15.77;;;18.10;99.90;;;;;;5032413;28;20049;-69
2022/09/07 07:07:10;;;;;;;16.23;15.03;;;18.00;99.90;;;;;;5032060;28;20045;-69
2022/09/07 07:09:37;;;;;;;15.52;14.20;;;17.90;99.90;;;;;;5017437;28;20048;-69
2022/09/07 07:12:04;;;;;;;15.50;13.98;;;18.10;99.90;;;;;;5035898;28;20053;-69
2022/09/07 07:14:32;;;;;;;15.52;14.25;;;18.30;99.90;;;;;;5014286;28;20419;-70
2022/09/07 07:17:02;;;;;;;15.10;14.05;;;18.40;99.90;;;;;;5034635;28;20049;-69
2022/09/07 07:19:28;;;;;;;16.95;15.68;;;18.50;99.90;;;;;;5073339;22;20709;-76
2022/09/07 07:21:55;;;;;;;17.67;16.45;;;18.50;99.90;;;;;;5043595;28;20090;-76
2022/09/07 07:24:42;;;;;;;18.33;17.20;;;18.40;99.90;;;;;;5044093;28;20504;-76
2022/09/07 07:27:08;;;;;;;17.77;16.67;;;18.40;99.90;;;;;;5037164;28;20271;-75
2022/09/07 07:29:35;;;;;;;18.67;17.20;;;18.50;99.90;;;;;;5040063;28;20052;-76
2022/09/07 07:32:03;;;;;;;17.90;16.58;;;18.40;99.90;;;;;;5030077;28;20133;-75
2022/09/07 07:34:29;;;;;;;17.63;16.30;;;18.60;99.90;;;;;;5039193;28;20307;-76
2022/09/07 07:36:56;;;;;;;17.30;15.88;;;18.90;99.90;;;;;;5055189;28;20504;-76
2022/09/07 07:39:23;;;;;;;18.30;17.10;;;19.20;99.90;;;;;;5056339;28;20079;-76
2022/09/07 07:42:11;;;;;;;18.02;16.92;;;19.20;99.90;;;;;;5037542;28;20040;-77
2022/09/07 07:44:37;;;;;;;19.40;18.25;;;19.40;99.90;;;;;;5055017;28;20044;-75
2022/09/07 07:47:05;;;;;;;21.08;19.98;;;19.90;99.90;;;;;;5056952;28;20044;-75
2022/09/07 07:49:32;;;;;;;20.65;19.40;;;20.10;99.90;;;;;;5034613;28;20049;-76
2022/09/07 07:51:59;;;;;;;22.48;20.52;;;20.20;99.90;;;;;;5058533;28;20044;-76
2022/09/07 07:54:46;;;;;;;21.55;20.15;;;20.30;99.90;;;;;;5045529;28;20042;-77
2022/09/07 07:57:13;;;;;;;21.77;20.48;;;20.40;99.90;;;;;;5078235;28;20044;-75
2022/09/07 07:59:41;;;;;;;20.15;18.98;;;20.40;99.90;;;;;;5079610;28;20038;-75
2022/09/07 08:02:14;;;;;;;20.25;19.02;;;20.30;99.90;;;;;;5080529;28;20050;-76
2022/09/07 08:04:41;;;;;;;20.35;18.95;;;20.40;99.90;;;;;;5079498;28;20093;-78
2022/09/07 08:07:10;;;;;;;21.02;19.75;;;20.60;99.90;;;;;;5073181;28;20423;-74
2022/09/07 08:09:42;;;;;;;21.60;20.10;;;20.90;99.90;;;;;;5078983;28;20657;-75
2022/09/07 08:12:11;;;;;;;22.05;20.38;;;21.30;99.90;;;;;;5080111;28;20058;-75
2022/09/07 08:14:39;;;;;;;22.67;21.20;;;21.40;99.90;;;;;;5079318;28;20050;-75
2022/09/07 08:17:09;;;;;;;22.10;20.80;;;21.30;99.90;;;;;;5069670;28;20044;-76
2022/09/07 08:19:36;;;;;;;22.35;21.05;;;21.40;99.90;;;;;;5070422;28;20139;-78
2022/09/07 08:22:04;;;;;;;23.20;21.42;;;21.70;99.90;;;;;;5066016;28;20040;-75
2022/09/07 08:24:34;;;;;;;22.70;21.40;;;21.70;99.90;;;;;;5049726;28;20048;-74
2022/09/07 08:27:00;;;;;;;23.15;21.58;;;21.90;99.90;;;;;;5080490;28;20595;-76
2022/09/07 08:29:27;;;;;;;23.38;22.08;;;22.00;99.90;;;;;;5059298;28;20476;-75
2022/09/07 08:31:59;;;;;;;25.20;23.48;;;22.20;99.90;;;;;;5071520;28;20097;-75
2022/09/07 08:34:25;;;;;;;25.20;23.80;;;22.30;99.90;;;;;;5079861;28;21204;-75
2022/09/07 08:36:53;;;;;;;26.73;25.23;;;22.30;99.90;;;;;;5069072;28;20040;-75
2022/09/07 08:39:20;;;;;;;25.63;24.23;;;22.30;99.90;;;;;;5080138;28;20040;-75
2022/09/07 08:42:19;;;;;;;25.75;24.35;;;22.50;99.90;;;;;;5078380;28;20067;-75
2022/09/07 08:45:13;;;;;;;25.13;23.73;;;22.70;99.90;;;;;;5076812;28;20050;-74
2022/09/07 08:47:51;;;;;;;25.98;24.42;;;23.30;99.90;;;;;;5077423;28;20130;-75
2022/09/07 08:50:44;;;;;;;24.58;23.17;;;23.80;99.90;;;;;;5062906;28;20045;-78
2022/09/07 08:53:16;;;;;;;25.73;24.25;;;24.10;99.90;;;;;;5077556;28;20052;-74
2022/09/07 08:56:00;;;;;;;24.45;23.05;;;24.00;99.90;;;;;;5076394;28;20046;-73
2022/09/07 08:58:40;;;;;;;25.50;24.05;;;23.80;99.90;;;;;;5079564;28;20131;-74
2022/09/07 09:01:18;;;;;;;24.92;23.42;;;23.90;99.90;;;;;;5078036;28;20844;-76
2022/09/07 09:04:09;;;;;;;24.40;23.00;;;23.50;99.90;;;;;;5070551;28;20056;-77
2022/09/07 09:06:57;;;;;;;24.27;22.88;;;23.40;99.90;;;;;;5076982;28;20044;-77
2022/09/07 09:09:32;;;;;;;24.88;23.45;;;23.50;99.90;;;;;;5079322;28;20044;-77
2022/09/07 09:12:26;;;;;;;24.08;22.58;;;23.50;99.90;;;;;;5076554;28;20058;-77
2022/09/07 09:14:56;;;;;;;25.17;23.70;;;23.70;99.90;;;;;;5071655;28;20035;-77
2022/09/07 09:17:50;;;;;;;24.58;22.95;;;23.70;99.90;;;;;;5079286;28;20036;-78
2022/09/07 09:20:19;;;;;;;25.02;23.73;;;24.10;99.90;;;;;;5076720;28;20464;-78
2022/09/07 09:22:47;;;;;;;25.17;23.60;;;24.10;99.90;;;;;;5078685;28;20040;-76
2022/09/07 09:25:21;;;;;;;24.38;23.00;;;24.60;99.90;;;;;;5080276;28;20066;-76
2022/09/07 09:27:48;;;;;;;25.48;24.08;;;25.00;99.90;;;;;;5077339;28;20662;-75
2022/09/07 09:30:18;;;;;;;24.70;23.40;;;24.90;99.90;;;;;;5044280;28;20618;-76
2022/09/07 09:32:47;;;;;;;25.58;24.27;;;24.90;99.90;;;;;;5064452;28;20048;-77
2022/09/07 09:35:27;;;;;;;25.80;24.20;;;24.70;99.90;;;;;;5079994;28;20051;-77
2022/09/07 09:37:56;;;;;;;25.73;24.13;;;24.80;99.90;;;;;;5066563;28;20036;-77
2022/09/07 09:40:27;;;;;;;24.17;22.67;;;25.10;99.90;;;;;;5065599;28;20501;-78
2022/09/07 09:43:00;;;;;;;23.70;22.30;;;25.40;99.90;;;;;;5063223;28;20048;-76
2022/09/07 09:45:30;;;;;;;24.48;22.90;;;25.20;99.90;;;;;;5078638;28;20082;-76
2022/09/07 09:48:22;;;;;;;24.65;23.17;;;25.00;99.90;;;;;;5076834;28;20040;-77
2022/09/07 09:50:53;;;;;;;24.15;22.75;;;25.00;99.90;;;;;;5076608;28;20352;-76
2022/09/07 09:54:04;;;;;;;24.70;23.08;;;24.50;99.90;;;;;;5062868;28;20032;-75
2022/09/07 09:56:44;;;;;;;23.83;22.33;;;24.40;99.90;;;;;;5065061;28;20047;-80
2022/09/07 09:59:17;;;;;;;25.27;23.70;;;24.30;99.90;;;;;;5056638;28;20048;-78
2022/09/07 10:02:27;;;;;;;24.80;23.30;;;24.10;99.90;;;;;;5050703;28;20050;-77
2022/09/07 10:05:46;;;;;;;23.88;22.48;;;24.50;99.90;;;;;;5074599;28;20032;-78
2022/09/07 10:08:20;;;;;;;24.65;23.10;;;25.10;99.90;;;;;;5041823;28;20048;-77
2022/09/07 10:11:06;;;;;;;24.50;22.90;;;24.70;99.90;;;;;;5076756;28;20040;-78
2022/09/07 10:13:38;;;;;;;;;;;24.40;99.90;;;;;;5075117;28;20044;-78
2022/09/07 10:16:07;;;;;;;23.13;21.85;;;24.70;99.90;;;;;;5059376;28;20522;-77
2022/09/07 10:18:56;;;;;;;24.77;23.27;;;25.30;99.90;;;;;;5062226;28;20066;-78
2022/09/07 10:21:29;;;;;;;24.55;23.15;;;25.90;99.90;;;;;;5077077;28;20040;-78
2022/09/07 10:24:06;;;;;;;25.50;23.60;;;26.20;99.90;;;;;;5078018;28;20477;-77
2022/09/07 10:26:35;;;;;;;24.17;22.77;;;25.80;99.90;;;;;;5088118;28;20047;-76
2022/09/07 10:29:18;;;;;;;24.48;23.08;;;25.70;99.90;;;;;;5080400;28;20040;-77
2022/09/07 10:31:51;;;;;;;24.00;22.60;;;25.70;99.90;;;;;;5076124;28;20246;-77
2022/09/07 10:34:30;;;;;;;24.05;22.75;;;25.90;99.90;;;;;;5060978;28;20063;-77
2022/09/07 10:37:05;;;;;;;24.23;22.88;;;26.00;99.90;;;;;;5066609;28;20048;-77
2022/09/07 10:39:41;;;;;;;23.95;22.50;;;26.30;99.90;;;;;;5065265;28;20550;-77
2022/09/07 10:42:08;;;;;;;23.40;22.08;;;26.40;99.90;;;;;;5049561;28;20475;-78
2022/09/07 10:44:59;;;;;;;23.75;22.45;;;26.40;99.90;;;;;;5067941;28;20151;-77
2022/09/07 10:47:37;;;;;;;24.52;23.10;;;26.20;99.90;;;;;;5051352;28;21033;-77
2022/09/07 10:50:13;;;;;;;24.90;23.35;;;26.00;99.90;;;;;;5077629;28;20101;-78
2022/09/07 10:52:59;;;;;;;24.75;23.35;;;25.80;99.90;;;;;;5057584;28;20068;-77
2022/09/07 10:55:39;;;;;;;25.10;23.70;;;25.10;99.90;;;;;;5076532;28;20047;-77
2022/09/07 10:58:24;;;;;;;25.88;24.23;;;25.10;99.90;;;;;;5074052;28;20043;-78
2022/09/07 11:01:50;;;;;;;26.52;24.65;;;25.20;99.90;;;;;;5073101;28;20641;-73
2022/09/07 11:04:20;;;;;;;;;;;25.30;99.90;;;;;;5060713;28;20042;-73
2022/09/07 11:06:53;;;;;;;25.25;23.70;;;25.50;99.90;;;;;;5076734;28;19926;-73
2022/09/07 11:09:54;;;;;;;25.25;23.75;;;25.60;99.90;;;;;;5068465;28;20123;-74
2022/09/07 11:12:33;;;;;;;25.52;24.00;;;25.80;99.90;;;;;;5064715;28;20742;-74
2022/09/07 11:15:12;;;;;;;25.35;23.67;;;25.80;99.90;;;;;;5077065;28;20106;-73
2022/09/07 11:17:54;;;;;;;25.67;24.10;;;26.20;99.90;;;;;;5046609;28;20048;-72
2022/09/07 11:20:29;;;;;;;25.63;24.13;;;26.40;99.90;;;;;;5075178;28;20560;-73
2022/09/07 11:23:07;;;;;;;25.42;23.83;;;26.40;99.90;;;;;;5077415;28;20198;-73
2022/09/07 11:25:59;;;;;;;25.13;23.45;;;26.10;99.90;;;;;;5073761;28;20044;-73
2022/09/07 11:28:34;;;;;;;25.50;24.00;;;26.10;99.90;;;;;;5051685;28;20051;-74
2022/09/07 11:31:10;;;;;;;25.08;23.58;;;26.20;99.90;;;;;;5062667;28;20044;-73
2022/09/07 11:34:01;;;;;;;24.83;23.23;;;26.40;99.90;;;;;;5074697;28;20112;-73
2022/09/07 11:37:01;;;;;;;25.52;23.90;;;26.40;99.90;;;;;;5061142;28;20399;-74
2022/09/07 11:39:39;;;;;;;24.23;22.83;;;26.30;99.90;;;;;;5077531;28;20499;-73
2022/09/07 11:42:19;;;;;;;25.63;24.13;;;26.10;99.90;;;;;;5061993;28;20679;-73
2022/09/07 11:45:28;;;;;;;25.48;23.85;;;26.00;99.90;;;;;;5076772;28;20078;-73
2022/09/07 11:48:04;;;;;;;25.40;23.70;;;25.90;99.90;;;;;;5059986;28;20044;-72
2022/09/07 11:50:35;;;;;;;24.80;23.40;;;26.10;99.90;;;;;;5062470;28;20103;-73
2022/09/07 11:53:13;;;;;;;25.90;24.30;;;26.40;99.90;;;;;;5075964;28;20055;-72
2022/09/07 11:55:44;;;;;;;24.42;22.92;;;26.40;99.90;;;;;;5072811;28;20418;-73
2022/09/07 11:58:49;;;;;;;24.38;22.98;;;26.70;99.90;;;;;;5077224;28;20044;-73
2022/09/07 12:01:54;;;;;;;24.40;22.90;;;26.90;99.90;;;;;;5074062;28;20106;-72
2022/09/07 12:04:45;;;;;;;24.80;23.25;;;26.80;99.90;;;;;;5076051;28;20043;-73
2022/09/07 12:07:32;;;;;;;23.25;21.95;;;26.80;99.90;;;;;;5059328;28;20044;-73
2022/09/07 12:10:02;;;;;;;23.48;22.08;;;26.50;99.90;;;;;;5058686;28;20048;-73
2022/09/07 12:12:46;;;;;;;23.20;21.90;;;26.50;99.90;;;;;;5075653;28;20047;-73
2022/09/07 12:15:44;;;;;;;25.08;23.58;;;26.50;99.90;;;;;;5060813;28;20119;-72
2022/09/07 12:18:49;;;;;;;25.00;23.50;;;26.80;99.90;;;;;;5077001;28;20036;-72
2022/09/07 12:21:51;;;;;;;24.35;23.00;;;26.90;99.90;;;;;;5059709;28;20231;-72
2022/09/07 12:24:44;;;;;;;25.35;23.92;;;27.00;99.90;;;;;;4955883;28;20046;-72
2022/09/07 12:27:20;;;;;;;26.08;24.38;;;27.00;99.90;;;;;;5070476;28;20044;-73
2022/09/07 12:29:48;;;;;;;25.50;24.10;;;27.00;99.90;;;;;;5062545;28;20051;-71
2022/09/07 12:32:45;;;;;;;25.70;24.17;;;27.20;99.90;;;;;;5073462;28;20047;-72
2022/09/07 12:35:27;;;;;;;26.45;24.85;;;27.20;99.90;;;;;;5062943;28;20046;-73
2022/09/07 12:37:55;;;;;;;24.27;22.75;;;27.00;99.90;;;;;;5075595;28;20116;-73
2022/09/07 12:40:32;;;;;;;25.67;24.17;;;27.20;99.90;;;;;;5079169;28;20036;-73
2022/09/07 12:43:11;;;;;;;25.40;24.00;;;27.10;99.90;;;;;;5072071;28;20459;-72
2022/09/07 12:45:38;;;;;;;24.67;22.95;;;27.10;99.90;;;;;;5076788;28;20036;-73
2022/09/07 12:48:13;;;;;;;25.90;24.40;;;27.10;99.90;;;;;;5078916;28;20714;-73
2022/09/07 12:50:52;;;;;;;25.80;24.30;;;27.00;99.90;;;;;;5078404;28;20121;-72
2022/09/07 12:53:40;;;;;;;25.63;24.13;;;26.80;99.90;;;;;;5069287;28;20078;-73
2022/09/07 12:56:35;;;;;;;25.52;23.92;;;26.90;99.90;;;;;;5077976;28;20048;-72
2022/09/07 12:59:17;;;;;;;25.58;24.13;;;26.90;99.90;;;;;;5067176;28;20052;-74
2022/09/07 13:02:06;;;;;;;25.55;24.02;;;27.10;99.90;;;;;;5075486;28;20036;-71
2022/09/07 13:04:51;;;;;;;25.08;23.73;;;26.80;99.90;;;;;;5077642;28;20044;-74
2022/09/07 13:07:21;;;;;;;25.13;23.73;;;26.90;99.90;;;;;;5070880;28;20052;-73